Time;durP1;ratioP1;P1;durP2;ratioP2;P2;SDS_P1;SDS_P2;PMS_P1;PMS_P2;Temp;Humidity;BMP_temperature;BMP_pressure;BME280_temperature;BME280_humidity;BME280_pressure;Samples;Min_cycle;Max_cycle;Signal;HPM_P1;HPM_P2
2022/01/22 00:02:23;;;;;;;;;;;;;;;;;;6227398;23;19920;-96
2022/01/22 00:04:50;;;;;;;;;;;;;;;;;;6226465;23;19978;-96
2022/01/22 00:07:16;;;;;;;;;;;;;;;;;;6226526;23;19923;-94
2022/01/22 00:09:50;;;;;;;;;;;;;;;;;;6227136;23;19954;-96
2022/01/22 00:12:28;;;;;;;;;;;;;;;;;;6226497;23;19954;-94
2022/01/22 00:14:53;;;;;;;;;;;;;;;;;;6227159;23;19963;-96
2022/01/22 00:17:20;;;;;;;;;;;;;;;;;;6227413;23;19920;-95
2022/01/22 00:19:46;;;;;;;;;;;;;;;;;;6227209;23;19951;-96
2022/01/22 00:22:12;;;;;;;;;;;;;;;;;;6227362;23;20092;-95
2022/01/22 00:24:40;;;;;;;;;;;;;;;;;;6226551;23;19924;-95
2022/01/22 00:27:06;;;;;;;;;;;;;;;;;;6226430;23;19924;-94
2022/01/22 00:29:32;;;;;;;;;;;;;;;;;;6226737;23;19920;-94
2022/01/22 00:31:59;;;;;;;;;;;;;;;;;;6226961;23;19974;-95
2022/01/22 00:34:25;;;;;;;;;;;;;;;;;;6227439;23;19920;-95
2022/01/22 00:36:51;;;;;;;;;;;;;;;;;;6226684;23;19923;-95
2022/01/22 00:39:17;;;;;;;;;;;;;;;;;;6225903;23;19924;-94
2022/01/22 00:41:44;;;;;;;;;;;;;;;;;;6226723;23;19928;-94
2022/01/22 00:44:10;;;;;;;;;;;;;;;;;;6227031;23;19920;-94
2022/01/22 00:46:36;;;;;;;;;;;;;;;;;;6226527;23;19955;-95
2022/01/22 00:49:03;;;;;;;;;;;;;;;;;;6226359;23;19978;-95
2022/01/22 00:51:29;;;;;;;;;;;;;;;;;;6226590;23;19926;-94
2022/01/22 00:53:56;;;;;;;;;;;;;;;;;;6226566;23;20142;-94
2022/01/22 00:56:22;;;;;;;;;;;;;;;;;;6226228;23;19920;-95
2022/01/22 00:58:49;;;;;;;;;;;;;;;;;;6226173;23;19923;-95
2022/01/22 01:01:15;;;;;;;;;;;;;;;;;;6226399;23;20053;-94
2022/01/22 01:03:41;;;;;;;;;;;;;;;;;;6226402;23;19924;-95
2022/01/22 01:06:08;;;;;;;;;;;;;;;;;;6226983;23;19924;-93
2022/01/22 01:08:35;;;;;;;;;;;;;;;;;;6226659;23;19924;-94
2022/01/22 01:11:01;;;;;;;;;;;;;;;;;;6227324;23;20713;-93
2022/01/22 01:13:31;;;;;;;;;;;;;;;;;;6227201;23;19920;-95
2022/01/22 01:16:02;;;;;;;;;;;;;;;;;;6226153;23;19920;-95
2022/01/22 01:32:17;;;;;;;;;;;;;;;;;;6196044;23;19916;-94
2022/01/22 01:34:44;;;;;;;;;;;;;;;;;;6195716;23;19931;-95
2022/01/22 01:37:12;;;;;;;;;;;;;;;;;;6194751;23;19928;-95
2022/01/22 01:39:40;;;;;;;;;;;;;;;;;;6193866;23;19925;-94
2022/01/22 01:42:09;;;;;;;;;;;;;;;;;;6196254;23;19960;-96
2022/01/22 01:44:36;;;;;;;;;;;;;;;;;;6195764;23;19925;-95
2022/01/22 01:47:02;;;;;;;;;;;;;;;;;;6195650;23;20451;-94
2022/01/22 01:49:28;;;;;;;;;;;;;;;;;;6195908;23;19963;-94
2022/01/22 01:51:57;;;;;;;;;;;;;;;;;;6195398;23;19951;-94
2022/01/22 01:54:30;;;;;;;;;;;;;;;;;;6195984;23;19924;-94
2022/01/22 01:59:40;;;;;;;;;;;;;;;;;;6195807;23;19923;-93
2022/01/22 02:02:06;;;;;;;;;;;;;;;;;;6194110;23;19932;-93
2022/01/22 02:04:33;;;;;;;;;;;;;;;;;;6193711;23;19951;-93
2022/01/22 02:06:59;;;;;;;;;;;;;;;;;;6194750;23;19924;-93
2022/01/22 02:09:25;;;;;;;;;;;;;;;;;;6195113;23;19920;-93
2022/01/22 02:12:00;;;;;;;;;;;;;;;;;;6195363;23;19944;-94
2022/01/22 02:25:31;;;;;;;;;;;;;;;;;;6124006;23;19955;-94
2022/01/22 02:27:59;;;;;;;;;;;;;;;;;;6194072;23;19924;-93
2022/01/22 02:30:29;;;;;;;;;;;;;;;;;;6219508;23;19924;-94
2022/01/22 02:33:10;;;;;;;;;;;;;;;;;;6223508;23;19924;-93
2022/01/22 02:35:44;;;;;;;;;;;;;;;;;;6223200;23;19924;-93
2022/01/22 02:38:16;;;;;;;;;;;;;;;;;;6226027;23;19927;-94
2022/01/22 02:40:45;;;;;;;;;;;;;;;;;;6226032;23;19924;-94
2022/01/22 02:43:12;;;;;;;;;;;;;;;;;;6223689;23;20348;-93
2022/01/22 02:45:38;;;;;;;;;;;;;;;;;;6223249;23;19920;-93
2022/01/22 02:48:04;;;;;;;;;;;;;;;;;;6225563;23;19923;-95
2022/01/22 02:50:31;;;;;;;;;;;;;;;;;;6225412;23;19946;-93
2022/01/22 02:52:57;;;;;;;;;;;;;;;;;;6224439;23;19963;-94
2022/01/22 02:55:23;;;;;;;;;;;;;;;;;;6223451;23;19920;-94
2022/01/22 02:57:49;;;;;;;;;;;;;;;;;;6225163;23;20258;-93
2022/01/22 03:00:16;;;;;;;;;;;;;;;;;;6225510;23;19920;-93
2022/01/22 03:02:43;;;;;;;;;;;;;;;;;;6224730;23;19920;-92
2022/01/22 03:05:09;;;;;;;;;;;;;;;;;;6224501;23;19920;-93
2022/01/22 03:07:36;;;;;;;;;;;;;;;;;;6224181;23;19920;-93
2022/01/22 03:10:04;;;;;;;;;;;;;;;;;;6224037;23;19934;-92
2022/01/22 03:12:52;;;;;;;;;;;;;;;;;;6223854;23;19926;-93
2022/01/22 03:18:06;;;;;;;;;;;;;;;;;;6223810;23;19987;-91
2022/01/22 03:20:48;;;;;;;;;;;;;;;;;;6223682;23;20416;-93
2022/01/22 03:27:14;;;;;;;;;;;;;;;;;;6226891;23;19927;-93
2022/01/22 03:28:57;;;;;;;;;;;;;;;;;;6226899;23;19978;-93
2022/01/22 03:31:23;;;;;;;;;;;;;;;;;;6227149;23;19920;-92
2022/01/22 03:33:50;;;;;;;;;;;;;;;;;;6227049;23;20302;-92
2022/01/22 03:36:16;;;;;;;;;;;;;;;;;;6227291;23;19939;-93
2022/01/22 03:38:42;;;;;;;;;;;;;;;;;;6224702;23;19951;-94
2022/01/22 03:41:09;;;;;;;;;;;;;;;;;;6225166;23;19943;-94
2022/01/22 03:43:35;;;;;;;;;;;;;;;;;;6200001;23;19927;-93
2022/01/22 03:46:01;;;;;;;;;;;;;;;;;;6226849;23;19950;-92
2022/01/22 03:48:28;;;;;;;;;;;;;;;;;;6226688;23;19954;-94
2022/01/22 03:50:54;;;;;;;;;;;;;;;;;;6226890;23;19924;-92
2022/01/22 03:53:20;;;;;;;;;;;;;;;;;;6226227;23;19924;-93
2022/01/22 03:55:55;;;;;;;;;;;;;;;;;;6225708;23;19951;-93
2022/01/22 03:58:21;;;;;;;;;;;;;;;;;;6226877;23;20289;-93
2022/01/22 04:00:50;;;;;;;;;;;;;;;;;;6226376;23;19994;-93
2022/01/22 04:06:31;;;;;;;;;;;;;;;;;;6225722;23;19950;-93
2022/01/22 04:08:59;;;;;;;;;;;;;;;;;;6225024;23;19920;-92
2022/01/22 04:11:25;;;;;;;;;;;;;;;;;;6225151;23;19924;-93
2022/01/22 04:13:53;;;;;;;;;;;;;;;;;;6224907;23;19955;-93
2022/01/22 04:16:20;;;;;;;;;;;;;;;;;;6223949;23;19924;-92
2022/01/22 04:27:07;;;;;;;;;;;;;;;;;;6226099;23;19942;-92
2022/01/22 04:29:33;;;;;;;;;;;;;;;;;;6225828;23;19924;-92
2022/01/22 04:31:59;;;;;;;;;;;;;;;;;;6226306;23;20003;-91
2022/01/22 04:34:25;;;;;;;;;;;;;;;;;;6226558;23;19970;-93
2022/01/22 04:36:52;;;;;;;;;;;;;;;;;;6226651;23;19936;-92
2022/01/22 04:39:19;;;;;;;;;;;;;;;;;;6225378;23;19969;-92
2022/01/22 04:41:45;;;;;;;;;;;;;;;;;;6225743;23;19970;-93
2022/01/22 04:44:12;;;;;;;;;;;;;;;;;;6226808;23;19920;-93
2022/01/22 04:46:53;;;;;;;;;;;;;;;;;;6226416;23;19934;-93
2022/01/22 04:54:59;;;;;;;;;;;;;;;;;;6223068;23;19939;-93
2022/01/22 04:57:26;;;;;;;;;;;;;;;;;;6225607;23;19927;-93
2022/01/22 04:59:52;;;;;;;;;;;;;;;;;;6226382;23;19970;-91
2022/01/22 05:02:18;;;;;;;;;;;;;;;;;;6226023;23;19963;-92
2022/01/22 05:04:44;;;;;;;;;;;;;;;;;;6223917;23;19920;-92
2022/01/22 05:07:11;;;;;;;;;;;;;;;;;;6217401;23;19920;-93
2022/01/22 05:09:37;;;;;;;;;;;;;;;;;;6219807;23;19920;-96
2022/01/22 05:12:04;;;;;;;;;;;;;;;;;;6219983;23;19947;-94
2022/01/22 05:14:30;;;;;;;;;;;;;;;;;;6223498;23;19920;-94
2022/01/22 05:16:59;;;;;;;;;;;;;;;;;;6222452;23;19943;-92
2022/01/22 05:19:31;;;;;;;;;;;;;;;;;;6221306;23;19920;-92
2022/01/22 05:22:05;;;;;;;;;;;;;;;;;;6221628;23;19931;-92
2022/01/22 05:24:33;;;;;;;;;;;;;;;;;;6224841;23;19924;-93
2022/01/22 05:27:23;;;;;;;;;;;;;;;;;;6224189;23;19995;-92
2022/01/22 05:32:55;;;;;;;;;;;;;;;;;;6209283;23;19957;-91
2022/01/22 05:38:05;;;;;;;;;;;;;;;;;;6224611;23;19939;-93
2022/01/22 05:40:32;;;;;;;;;;;;;;;;;;6223298;23;19919;-93
2022/01/22 05:42:58;;;;;;;;;;;;;;;;;;6223078;23;19920;-92
2022/01/22 05:45:24;;;;;;;;;;;;;;;;;;6222449;23;19924;-92
2022/01/22 05:47:50;;;;;;;;;;;;;;;;;;6222881;23;19955;-91
2022/01/22 05:50:28;;;;;;;;;;;;;;;;;;6223186;23;19948;-92
2022/01/22 05:52:58;;;;;;;;;;;;;;;;;;6225044;23;20408;-93
2022/01/22 06:00:52;;;;;;;;;;;;;;;;;;6224969;23;19919;-92
2022/01/22 06:03:18;;;;;;;;;;;;;;;;;;6225255;23;19930;-92
2022/01/22 06:05:44;;;;;;;;;;;;;;;;;;6225147;23;19923;-91
2022/01/22 06:08:15;;;;;;;;;;;;;;;;;;6225036;23;19928;-91
2022/01/22 06:10:41;;;;;;;;;;;;;;;;;;6225643;23;19930;-93
2022/01/22 06:13:14;;;;;;;;;;;;;;;;;;6225359;23;19966;-92
2022/01/22 06:15:40;;;;;;;;;;;;;;;;;;6225953;23;19924;-92
2022/01/22 06:18:06;;;;;;;;;;;;;;;;;;6224449;23;19924;-93
2022/01/22 06:20:32;;;;;;;;;;;;;;;;;;6224601;23;19955;-93
2022/01/22 06:22:59;;;;;;;;;;;;;;;;;;6223481;23;19974;-92
2022/01/22 06:25:25;;;;;;;;;;;;;;;;;;6224141;23;19967;-92
2022/01/22 06:27:51;;;;;;;;;;;;;;;;;;6224981;23;19943;-92
2022/01/22 06:30:17;;;;;;;;;;;;;;;;;;6225891;23;19920;-92
2022/01/22 06:32:43;;;;;;;;;;;;;;;;;;6225440;23;19947;-92
2022/01/22 06:35:10;;;;;;;;;;;;;;;;;;6224669;23;19943;-93
2022/01/22 06:37:36;;;;;;;;;;;;;;;;;;6223583;23;19919;-93
2022/01/22 06:42:42;;;;;;;;;;;;;;;;;;6222004;23;19924;-93
2022/01/22 06:45:09;;;;;;;;;;;;;;;;;;6224558;23;19928;-92
2022/01/22 06:47:35;;;;;;;;;;;;;;;;;;6224806;23;19924;-92
2022/01/22 06:50:01;;;;;;;;;;;;;;;;;;6225567;23;19952;-92
2022/01/22 06:52:29;;;;;;;;;;;;;;;;;;6225651;23;20436;-92
2022/01/22 06:54:55;;;;;;;;;;;;;;;;;;6225659;23;19971;-93
2022/01/22 06:57:22;;;;;;;;;;;;;;;;;;6198578;23;19947;-92
2022/01/22 06:59:48;;;;;;;;;;;;;;;;;;6225746;23;19924;-93
2022/01/22 07:02:14;;;;;;;;;;;;;;;;;;6224557;23;19935;-93
2022/01/22 07:04:40;;;;;;;;;;;;;;;;;;6224293;23;19923;-92
2022/01/22 07:07:08;;;;;;;;;;;;;;;;;;6223925;23;19924;-93
2022/01/22 07:09:34;;;;;;;;;;;;;;;;;;6223991;23;19951;-93
2022/01/22 07:12:00;;;;;;;;;;;;;;;;;;6224535;23;19979;-92
2022/01/22 07:14:27;;;;;;;;;;;;;;;;;;6225317;23;19958;-93
2022/01/22 07:16:53;;;;;;;;;;;;;;;;;;6225071;23;19924;-92
2022/01/22 07:19:20;;;;;;;;;;;;;;;;;;6225186;23;19987;-92
2022/01/22 07:21:51;;;;;;;;;;;;;;;;;;6224859;23;19920;-92
2022/01/22 07:24:23;;;;;;;;;;;;;;;;;;6224300;23;19991;-92
2022/01/22 07:26:50;;;;;;;;;;;;;;;;;;6223756;23;19923;-92
2022/01/22 07:29:16;;;;;;;;;;;;;;;;;;6221290;23;19978;-92
2022/01/22 07:31:42;;;;;;;;;;;;;;;;;;6222203;23;19967;-93
2022/01/22 07:34:08;;;;;;;;;;;;;;;;;;6223809;23;19924;-92
2022/01/22 07:36:35;;;;;;;;;;;;;;;;;;6224293;23;19947;-92
2022/01/22 07:39:01;;;;;;;;;;;;;;;;;;6225247;23;19920;-91
2022/01/22 07:41:27;;;;;;;;;;;;;;;;;;6224958;23;19951;-91
2022/01/22 07:43:53;;;;;;;;;;;;;;;;;;6223041;23;19920;-92
2022/01/22 07:46:19;;;;;;;;;;;;;;;;;;6222175;23;19924;-94
2022/01/22 07:48:46;;;;;;;;;;;;;;;;;;6221273;23;19951;-94
2022/01/22 07:51:12;;;;;;;;;;;;;;;;;;6220761;23;19947;-94
2022/01/22 07:53:38;;;;;;;;;;;;;;;;;;6222627;23;19923;-93
2022/01/22 07:56:05;;;;;;;;;;;;;;;;;;6222442;23;19924;-93
2022/01/22 07:58:31;;;;;;;;;;;;;;;;;;6224706;23;19970;-93
2022/01/22 08:00:57;;;;;;;;;;;;;;;;;;6222521;23;19971;-93
2022/01/22 08:03:26;;;;;;;;;;;;;;;;;;6223190;23;19939;-93
2022/01/22 08:05:52;;;;;;;;;;;;;;;;;;6223066;23;19951;-92
2022/01/22 08:08:19;;;;;;;;;;;;;;;;;;6223585;23;19982;-93
2022/01/22 08:10:45;;;;;;;;;;;;;;;;;;6226237;23;19924;-93
2022/01/22 08:13:11;;;;;;;;;;;;;;;;;;6223626;23;19947;-93
2022/01/22 08:15:37;;;;;;;;;;;;;;;;;;6222531;23;19920;-94
2022/01/22 08:18:05;;;;;;;;;;;;;;;;;;6223533;23;19924;-92
2022/01/22 08:20:31;;;;;;;;;;;;;;;;;;6224129;23;19924;-93
2022/01/22 08:22:57;;;;;;;;;;;;;;;;;;6225482;23;19971;-93
2022/01/22 08:25:24;;;;;;;;;;;;;;;;;;6225277;23;19924;-93
2022/01/22 08:30:34;;;;;;;;;;;;;;;;;;6192589;23;19927;-92
2022/01/22 08:33:20;;;;;;;;;;;;;;;;;;6194399;23;19991;-91
2022/01/22 08:35:52;;;;;;;;;;;;;;;;;;6194011;23;20354;-91
2022/01/22 08:38:18;;;;;;;;;;;;;;;;;;6192726;23;19924;-91
2022/01/22 08:40:45;;;;;;;;;;;;;;;;;;6192857;23;19948;-89
2022/01/22 08:43:11;;;;;;;;;;;;;;;;;;6193623;23;19925;-90
2022/01/22 08:45:37;;;;;;;;;;;;;;;;;;6193527;23;19924;-90
2022/01/22 08:48:03;;;;;;;;;;;;;;;;;;6193983;23;19971;-90
2022/01/22 08:50:30;;;;;;;;;;;;;;;;;;6193648;23;19982;-90
2022/01/22 08:52:56;;;;;;;;;;;;;;;;;;6191161;23;19920;-91
2022/01/22 08:55:22;;;;;;;;;;;;;;;;;;6192759;23;19945;-90
2022/01/22 08:57:51;;;;;;;;;;;;;;;;;;6182724;23;19920;-90
2022/01/22 09:00:17;;;;;;;;;;;;;;;;;;6193909;23;19927;-92
2022/01/22 09:02:46;;;;;;;;;;;;;;;;;;6193635;23;19924;-93
2022/01/22 09:05:15;;;;;;;;;;;;;;;;;;6191296;23;19924;-89
2022/01/22 09:07:41;;;;;;;;;;;;;;;;;;6193185;23;19924;-91
2022/01/22 09:10:08;;;;;;;;;;;;;;;;;;6195113;23;19928;-91
2022/01/22 09:12:34;;;;;;;;;;;;;;;;;;6194461;23;19924;-90
2022/01/22 09:15:00;;;;;;;;;;;;;;;;;;6191659;23;19928;-90
2022/01/22 09:17:26;;;;;;;;;;;;;;;;;;6193387;23;19952;-91
2022/01/22 09:19:57;;;;;;;;;;;;;;;;;;6192431;23;19920;-92
2022/01/22 09:22:23;;;;;;;;;;;;;;;;;;6193923;23;20904;-91
2022/01/22 09:24:49;;;;;;;;;;;;;;;;;;6192598;23;20554;-94
2022/01/22 09:27:16;;;;;;;;;;;;;;;;;;6192093;23;20237;-92
2022/01/22 09:29:42;;;;;;;;;;;;;;;;;;6208463;23;20338;-93
2022/01/22 09:32:09;;;;;;;;;;;;;;;;;;6221626;23;20386;-93
2022/01/22 09:34:35;;;;;;;;;;;;;;;;;;6223294;23;19923;-92
2022/01/22 09:37:01;;;;;;;;;;;;;;;;;;6226838;23;19939;-95
2022/01/22 09:39:27;;;;;;;;;;;;;;;;;;6227604;23;19979;-93
2022/01/22 09:41:54;;;;;;;;;;;;;;;;;;6224231;23;19980;-93
2022/01/22 09:44:20;;;;;;;;;;;;;;;;;;6224980;23;19923;-93
2022/01/22 09:46:56;;;;;;;;;;;;;;;;;;6225017;23;19976;-94
2022/01/22 09:49:22;;;;;;;;;;;;;;;;;;6224079;23;20577;-95
2022/01/22 09:51:48;;;;;;;;;;;;;;;;;;6222337;23;19964;-93
2022/01/22 09:54:14;;;;;;;;;;;;;;;;;;6222796;23;19979;-95
2022/01/22 09:56:44;;;;;;;;;;;;;;;;;;6223891;23;19971;-94
2022/01/22 09:59:11;;;;;;;;;;;;;;;;;;6224112;23;19967;-94
2022/01/22 10:01:37;;;;;;;;;;;;;;;;;;6224053;23;19923;-94
2022/01/22 10:04:03;;;;;;;;;;;;;;;;;;6224760;23;19904;-95
2022/01/22 10:06:29;;;;;;;;;;;;;;;;;;6223265;23;19943;-95
2022/01/22 10:08:58;;;;;;;;;;;;;;;;;;6224681;23;19920;-95
2022/01/22 10:11:25;;;;;;;;;;;;;;;;;;6222593;23;19942;-94
2022/01/22 10:13:52;;;;;;;;;;;;;;;;;;6219439;23;19947;-92
2022/01/22 10:16:18;;;;;;;;;;;;;;;;;;6218151;23;19951;-96
2022/01/22 10:18:44;;;;;;;;;;;;;;;;;;6224723;23;19924;-96
2022/01/22 10:21:10;;;;;;;;;;;;;;;;;;6225711;23;20358;-94
2022/01/22 10:23:39;;;;;;;;;;;;;;;;;;6227802;23;19923;-94
2022/01/22 10:26:07;;;;;;;;;;;;;;;;;;6221932;23;19920;-94
2022/01/22 10:28:33;;;;;;;;;;;;;;;;;;6225073;23;19920;-96
2022/01/22 10:31:00;;;;;;;;;;;;;;;;;;6227999;23;19974;-95
2022/01/22 10:33:30;;;;;;;;;;;;;;;;;;6226112;23;19948;-95
2022/01/22 10:35:56;;;;;;;;;;;;;;;;;;6226822;23;19920;-92
2022/01/22 10:38:23;;;;;;;;;;;;;;;;;;6225117;23;19927;-91
2022/01/22 10:40:49;;;;;;;;;;;;;;;;;;6226561;23;19920;-92
2022/01/22 10:43:17;;;;;;;;;;;;;;;;;;6226915;23;19920;-96
2022/01/22 10:45:43;;;;;;;;;;;;;;;;;;6227241;23;19943;-93
2022/01/22 10:48:09;;;;;;;;;;;;;;;;;;6229868;23;19920;-96
2022/01/22 10:50:36;;;;;;;;;;;;;;;;;;6231893;23;19919;-93
2022/01/22 10:53:02;;;;;;;;;;;;;;;;;;6227153;23;19947;-94
2022/01/22 10:55:28;;;;;;;;;;;;;;;;;;6226005;23;19951;-93
2022/01/22 10:58:03;;;;;;;;;;;;;;;;;;6226938;23;19923;-96
2022/01/22 11:00:39;;;;;;;;;;;;;;;;;;6225443;22;20705;-96
2022/01/22 11:03:06;;;;;;;;;;;;;;;;;;6225562;23;19920;-96
2022/01/22 11:05:34;;;;;;;;;;;;;;;;;;6228415;23;19986;-96
2022/01/22 11:08:00;;;;;;;;;;;;;;;;;;6229553;23;19943;-93
2022/01/22 11:10:27;;;;;;;;;;;;;;;;;;6223735;22;19935;-96
2022/01/22 11:12:53;;;;;;;;;;;;;;;;;;6227129;23;19924;-96
2022/01/22 11:15:19;;;;;;;;;;;;;;;;;;6225954;23;19920;-94
2022/01/22 11:17:45;;;;;;;;;;;;;;;;;;6228116;23;19951;-93
2022/01/22 11:20:13;;;;;;;;;;;;;;;;;;6234649;23;19951;-94
2022/01/22 11:22:40;;;;;;;;;;;;;;;;;;6258033;23;19928;-92
2022/01/22 11:25:07;;;;;;;;;;;;;;;;;;6229602;23;19926;-96
2022/01/22 11:27:36;;;;;;;;;;;;;;;;;;6228100;22;20114;-96
2022/01/22 11:30:05;;;;;;;;;;;;;;;;;;6229658;23;19908;-96
2022/01/22 11:35:15;;;;;;;;;;;;;;;;;;6212636;22;19927;-92
2022/01/22 11:37:43;;;;;;;;;;;;;;;;;;6228911;23;20339;-96
2022/01/22 11:40:10;;;;;;;;;;;;;;;;;;6236002;23;19992;-96
2022/01/22 11:42:37;;;;;;;;;;;;;;;;;;6238646;23;19934;-95
2022/01/22 11:45:03;;;;;;;;;;;;;;;;;;6228525;23;20373;-94
2022/01/22 11:47:29;;;;;;;;;;;;;;;;;;6210568;23;19911;-93
2022/01/22 11:52:35;;;;;;;;;;;;;;;;;;6180380;23;20338;-96
2022/01/22 12:26:11;;;;;;;;;;;;;;;;;;6173418;23;21159;-93
2022/01/22 12:31:10;;;;;;;;;;;;;;;;;;6202834;23;19955;-96
2022/01/22 12:33:37;;;;;;;;;;;;;;;;;;6195522;23;20009;-90
2022/01/22 12:38:52;;;;;;;;;;;;;;;;;;6185936;23;19905;-96
2022/01/22 12:41:30;;;;;;;;;;;;;;;;;;6222803;22;19990;-92
2022/01/22 12:43:56;;;;;;;;;;;;;;;;;;6227967;23;19920;-92
2022/01/22 12:46:23;;;;;;;;;;;;;;;;;;6230129;23;20335;-90
2022/01/22 12:48:49;;;;;;;;;;;;;;;;;;6228454;23;19942;-96
2022/01/22 12:51:15;;;;;;;;;;;;;;;;;;6212854;22;19924;-92
2022/01/22 12:53:41;;;;;;;;;;;;;;;;;;6183937;23;19926;-93
2022/01/22 12:56:47;;;;;;;;;;;;;;;;;;6197835;23;19956;-93
2022/01/22 12:59:01;;;;;;;;;;;;;;;;;;6201484;23;19948;-91
2022/01/22 13:01:30;;;;;;;;;;;;;;;;;;6187142;23;19928;-92
2022/01/22 13:03:56;;;;;;;;;;;;;;;;;;6193821;23;19931;-95
2022/01/22 13:06:23;;;;;;;;;;;;;;;;;;6191213;23;19904;-96
2022/01/22 13:08:49;;;;;;;;;;;;;;;;;;6196378;23;19911;-91
2022/01/22 13:11:21;;;;;;;;;;;;;;;;;;6201098;23;19922;-96
2022/01/22 13:13:55;;;;;;;;;;;;;;;;;;6199445;23;19920;-96
2022/01/22 13:16:24;;;;;;;;;;;;;;;;;;6204436;23;19921;-96
2022/01/22 13:18:51;;;;;;;;;;;;;;;;;;6197942;23;19924;-94
2022/01/22 13:21:21;;;;;;;;;;;;;;;;;;6204723;23;19928;-96
2022/01/22 13:23:50;;;;;;;;;;;;;;;;;;6198849;23;19920;-96
2022/01/22 13:26:16;;;;;;;;;;;;;;;;;;6223245;22;19936;-93
2022/01/22 13:28:45;;;;;;;;;;;;;;;;;;6231795;23;19924;-96
2022/01/22 13:31:15;;;;;;;;;;;;;;;;;;6231049;23;19920;-96
2022/01/22 13:36:35;;;;;;;;;;;;;;;;;;6225650;23;19934;-92
2022/01/22 13:52:27;;;;;;;;;;;;;;;;;;6198482;23;19905;-94
2022/01/22 13:54:54;;;;;;;;;;;;;;;;;;6200560;23;19955;-93
2022/01/22 14:00:06;;;;;;;;;;;;;;;;;;6192659;23;19908;-90
2022/01/22 14:02:49;;;;;;;;;;;;;;;;;;6200754;23;19947;-95
2022/01/22 14:05:15;;;;;;;;;;;;;;;;;;6193405;23;19970;-96
2022/01/22 14:26:21;;;;;;;;;;;;;;;;;;6223149;23;19927;-95
2022/01/22 14:28:47;;;;;;;;;;;;;;;;;;6230146;23;19943;-95
2022/01/22 14:31:14;;;;;;;;;;;;;;;;;;6232255;23;19920;-94
2022/01/22 14:33:48;;;;;;;;;;;;;;;;;;6229220;23;19928;-96
2022/01/22 14:36:15;;;;;;;;;;;;;;;;;;6223483;23;19920;-96
2022/01/22 14:46:52;;;;;;;;;;;;;;;;;;6169568;23;19911;-95
2022/01/22 14:49:19;;;;;;;;;;;;;;;;;;6171063;23;19983;-95
2022/01/22 14:54:31;;;;;;;;;;;;;;;;;;6231261;22;19919;-96
2022/01/22 15:05:09;;;;;;;;;;;;;;;;;;6132141;23;19925;-96
2022/01/22 15:12:47;;;;;;;;;;;;;;;;;;6147142;23;20070;-96
2022/01/22 15:20:31;;;;;;;;;;;;;;;;;;6144328;23;19954;-94
2022/01/22 15:23:00;;;;;;;;;;;;;;;;;;6209005;22;19919;-95
2022/01/22 15:25:27;;;;;;;;;;;;;;;;;;6209000;23;19920;-93
2022/01/22 15:38:28;;;;;;;;;;;;;;;;;;6164614;23;20129;-95
2022/01/22 15:59:37;;;;;;;;;;;;;;;;;;6208053;23;19920;-96
2022/01/22 16:02:04;;;;;;;;;;;;;;;;;;6262862;23;19927;-95
2022/01/22 16:04:32;;;;;;;;;;;;;;;;;;6231025;23;19927;-96
2022/01/22 16:07:06;;;;;;;;;;;;;;;;;;6260786;23;19919;-96
2022/01/22 16:09:36;;;;;;;;;;;;;;;;;;6260020;23;19972;-96
2022/01/22 16:12:09;;;;;;;;;;;;;;;;;;6256496;23;19994;-94
2022/01/22 16:14:47;;;;;;;;;;;;;;;;;;6262859;23;19994;-96
2022/01/22 16:22:34;;;;;;;;;;;;;;;;;;6166620;23;20220;-96
2022/01/22 16:25:02;;;;;;;;;;;;;;;;;;6171570;23;19980;-95
2022/01/22 16:27:35;;;;;;;;;;;;;;;;;;6173968;23;19924;-96
2022/01/22 16:30:01;;;;;;;;;;;;;;;;;;6168245;23;19988;-96
2022/01/22 16:32:37;;;;;;;;;;;;;;;;;;6174402;23;19972;-96
2022/01/22 16:35:04;;;;;;;;;;;;;;;;;;6169401;23;19925;-96
2022/01/22 16:37:30;;;;;;;;;;;;;;;;;;6175477;23;19905;-96
2022/01/22 16:42:38;;;;;;;;;;;;;;;;;;6236600;22;19914;-96
2022/01/22 16:45:23;;;;;;;;;;;;;;;;;;6232242;23;20341;-93
2022/01/22 17:24:38;;;;;;;;;;;;;;;;;;6179174;22;21013;-96
2022/01/22 18:02:19;;;;;;;;;;;;;;;;;;6170580;22;20025;-96
2022/01/22 18:10:08;;;;;;;;;;;;;;;;;;6197379;23;19924;-95
2022/01/22 18:12:34;;;;;;;;;;;;;;;;;;6194973;23;19924;-96
2022/01/22 18:15:00;;;;;;;;;;;;;;;;;;6201319;23;19939;-94
2022/01/22 18:17:27;;;;;;;;;;;;;;;;;;6196593;23;20315;-93
2022/01/22 18:19:53;;;;;;;;;;;;;;;;;;6198289;23;19924;-94
2022/01/22 18:22:19;;;;;;;;;;;;;;;;;;6198206;23;19983;-96
2022/01/22 18:24:45;;;;;;;;;;;;;;;;;;6199995;23;19924;-96
2022/01/22 18:27:14;;;;;;;;;;;;;;;;;;6195946;23;22261;-96
2022/01/22 18:29:40;;;;;;;;;;;;;;;;;;6197802;23;19920;-96
2022/01/22 18:32:06;;;;;;;;;;;;;;;;;;6248086;23;19919;-96
2022/01/22 18:34:34;;;;;;;;;;;;;;;;;;6259276;23;19920;-96
2022/01/22 18:37:01;;;;;;;;;;;;;;;;;;6253964;23;20032;-96
2022/01/22 18:39:27;;;;;;;;;;;;;;;;;;6258038;23;19946;-96
2022/01/22 18:41:55;;;;;;;;;;;;;;;;;;6257781;23;19919;-94
2022/01/22 18:44:21;;;;;;;;;;;;;;;;;;6260696;23;19919;-94
2022/01/22 18:46:48;;;;;;;;;;;;;;;;;;6263781;23;19926;-96
2022/01/22 18:49:14;;;;;;;;;;;;;;;;;;6256572;23;19920;-96
2022/01/22 18:51:40;;;;;;;;;;;;;;;;;;6254639;23;19926;-95
2022/01/22 18:54:07;;;;;;;;;;;;;;;;;;6255690;23;20382;-96
2022/01/22 18:56:33;;;;;;;;;;;;;;;;;;6254443;23;19926;-95
2022/01/22 18:58:59;;;;;;;;;;;;;;;;;;6254423;23;19947;-96
2022/01/22 19:01:29;;;;;;;;;;;;;;;;;;6255881;23;19923;-96
2022/01/22 19:03:55;;;;;;;;;;;;;;;;;;6255780;23;19924;-96
2022/01/22 19:06:21;;;;;;;;;;;;;;;;;;6254650;23;19934;-96
2022/01/22 19:08:48;;;;;;;;;;;;;;;;;;6258606;23;19943;-96
2022/01/22 19:11:14;;;;;;;;;;;;;;;;;;6260048;23;19919;-96
2022/01/22 19:13:40;;;;;;;;;;;;;;;;;;6259369;23;19904;-96
2022/01/22 19:16:07;;;;;;;;;;;;;;;;;;6259063;23;19974;-96
2022/01/22 19:18:33;;;;;;;;;;;;;;;;;;6258584;23;19919;-96
2022/01/22 19:21:04;;;;;;;;;;;;;;;;;;6256203;23;19919;-96
2022/01/22 19:23:42;;;;;;;;;;;;;;;;;;6255860;23;19967;-96
2022/01/22 19:26:24;;;;;;;;;;;;;;;;;;6256907;23;19986;-96
2022/01/22 19:28:50;;;;;;;;;;;;;;;;;;6256020;23;19920;-96
2022/01/22 19:31:18;;;;;;;;;;;;;;;;;;6255212;23;20412;-96
2022/01/22 19:33:44;;;;;;;;;;;;;;;;;;6256291;23;19927;-96
2022/01/22 19:38:51;;;;;;;;;;;;;;;;;;6256954;23;19970;-96
2022/01/22 19:41:24;;;;;;;;;;;;;;;;;;6259121;23;19942;-96
2022/01/22 19:43:55;;;;;;;;;;;;;;;;;;6259952;23;19920;-96
2022/01/22 19:49:05;;;;;;;;;;;;;;;;;;6260103;23;19923;-96
2022/01/22 19:51:31;;;;;;;;;;;;;;;;;;6258805;23;19935;-95
2022/01/22 19:56:43;;;;;;;;;;;;;;;;;;6256723;23;19934;-96
2022/01/22 19:59:09;;;;;;;;;;;;;;;;;;6259379;23;19974;-96
2022/01/22 20:01:38;;;;;;;;;;;;;;;;;;6255831;23;19927;-96
2022/01/22 20:04:04;;;;;;;;;;;;;;;;;;6261738;23;19920;-93
2022/01/22 20:06:32;;;;;;;;;;;;;;;;;;6263195;23;19920;-96
2022/01/22 20:09:04;;;;;;;;;;;;;;;;;;6260563;23;19926;-96
2022/01/22 20:11:35;;;;;;;;;;;;;;;;;;6266094;23;19927;-96
2022/01/22 20:14:02;;;;;;;;;;;;;;;;;;6263441;23;19943;-96
2022/01/22 20:16:38;;;;;;;;;;;;;;;;;;6265959;23;19930;-96
2022/01/22 20:19:07;;;;;;;;;;;;;;;;;;6268204;23;19927;-96
2022/01/22 20:21:35;;;;;;;;;;;;;;;;;;6264258;23;19959;-93
2022/01/22 20:24:05;;;;;;;;;;;;;;;;;;6263299;23;19920;-96
2022/01/22 20:26:32;;;;;;;;;;;;;;;;;;6236985;23;20365;-96
2022/01/22 20:29:03;;;;;;;;;;;;;;;;;;6266092;23;19932;-96
2022/01/22 20:39:35;;;;;;;;;;;;;;;;;;6234686;23;19943;-96
2022/01/22 20:42:01;;;;;;;;;;;;;;;;;;6232179;23;19920;-96
2022/01/22 20:44:29;;;;;;;;;;;;;;;;;;6231722;23;20305;-95
2022/01/22 20:46:59;;;;;;;;;;;;;;;;;;6235023;23;20270;-94
2022/01/22 20:49:29;;;;;;;;;;;;;;;;;;6236080;23;19940;-96
2022/01/22 20:51:57;;;;;;;;;;;;;;;;;;6234452;23;19950;-96
2022/01/22 20:54:25;;;;;;;;;;;;;;;;;;6233124;23;19928;-96
2022/01/22 20:57:02;;;;;;;;;;;;;;;;;;6234908;23;19908;-96
2022/01/22 20:59:29;;;;;;;;;;;;;;;;;;6231540;23;19920;-96
2022/01/22 21:01:55;;;;;;;;;;;;;;;;;;6228782;23;19920;-95
2022/01/22 21:04:22;;;;;;;;;;;;;;;;;;6228541;23;20365;-93
2022/01/22 21:06:48;;;;;;;;;;;;;;;;;;6228527;23;19923;-94
2022/01/22 21:09:14;;;;;;;;;;;;;;;;;;6228105;23;19920;-96
2022/01/22 21:14:21;;;;;;;;;;;;;;;;;;6224693;23;19919;-96
2022/01/22 21:16:47;;;;;;;;;;;;;;;;;;6198272;23;19927;-96
2022/01/22 21:19:16;;;;;;;;;;;;;;;;;;6229031;23;19924;-94
2022/01/22 21:21:42;;;;;;;;;;;;;;;;;;6230530;23;19932;-96
2022/01/22 21:24:10;;;;;;;;;;;;;;;;;;6231923;23;19950;-96
2022/01/22 21:26:36;;;;;;;;;;;;;;;;;;6229637;23;19927;-96
2022/01/22 21:29:02;;;;;;;;;;;;;;;;;;6229494;23;19935;-95
2022/01/22 21:31:34;;;;;;;;;;;;;;;;;;6229112;23;19923;-96
2022/01/22 21:34:11;;;;;;;;;;;;;;;;;;6232234;23;19904;-96
2022/01/22 21:36:45;;;;;;;;;;;;;;;;;;6229378;23;19966;-96
2022/01/22 21:41:55;;;;;;;;;;;;;;;;;;6227828;23;19947;-96
2022/01/22 21:44:25;;;;;;;;;;;;;;;;;;6230230;23;20534;-95
2022/01/22 21:46:51;;;;;;;;;;;;;;;;;;6228586;23;19919;-95
2022/01/22 21:49:17;;;;;;;;;;;;;;;;;;6230541;23;19920;-93
2022/01/22 21:51:44;;;;;;;;;;;;;;;;;;6227823;23;19951;-93
2022/01/22 21:54:13;;;;;;;;;;;;;;;;;;6225131;23;19924;-96
2022/01/22 21:56:40;;;;;;;;;;;;;;;;;;6223761;23;19998;-94
2022/01/22 21:59:06;;;;;;;;;;;;;;;;;;6227382;23;19943;-96
2022/01/22 22:01:33;;;;;;;;;;;;;;;;;;6227721;23;19943;-96
2022/01/22 22:04:00;;;;;;;;;;;;;;;;;;6229012;23;19927;-96